American Falls, Idaho
Current Conditions -  °F | °C
As of 2:53 PM on Tuesday 21 Oct 2014 (Local Time) from KPIH Reporting Station
Broken Clouds Broken Clouds  
Wind Chill: 53°   Ceiling: 4400
Heat Index: 53°   Visibility: 10mi
Dew Point: 36°   Wind: 22mph
Humidity: 52%   Direction: 250°WSW
Pressure: 30.04"   Gusts: NA
Location:  42.79°N, 112.85°W
Report Text: KPIH 212053Z 25019KT 10SM BKN044 12/02 A3004 RMK AO2 PK WND 25027/2043 SLP138 60000 T01170022 58005
Loading
Personal Weather Stations






























Interactive Weather Map
Tropical Storm Tracking
New forecast layout! Learn more

10-Day Weather Forecast

Advertisements
Track Severe Weather on mobile